sensor_id;sensor_type;location;lat;lon;timestamp;pressure;altitude;pressure_sealevel;temperature;humidity
53340;BME280;46212;50.258;19.062;2023-02-15T00:00:06;100204.50;;;3.51;80.85
53340;BME280;46212;50.258;19.062;2023-02-15T00:02:35;100203.22;;;3.42;80.86
53340;BME280;46212;50.258;19.062;2023-02-15T00:05:00;100196.69;;;3.23;81.04
53340;BME280;46212;50.258;19.062;2023-02-15T00:07:26;100199.13;;;3.29;81.37
53340;BME280;46212;50.258;19.062;2023-02-15T00:09:52;100187.97;;;3.41;81.23
53340;BME280;46212;50.258;19.062;2023-02-15T00:12:17;100197.81;;;3.45;80.68
53340;BME280;46212;50.258;19.062;2023-02-15T00:14:43;100197.88;;;3.52;80.40
53340;BME280;46212;50.258;19.062;2023-02-15T00:17:08;100192.00;;;3.50;80.09
53340;BME280;46212;50.258;19.062;2023-02-15T00:19:34;100181.31;;;3.38;80.19
53340;BME280;46212;50.258;19.062;2023-02-15T00:21:59;100189.91;;;3.40;80.41
53340;BME280;46212;50.258;19.062;2023-02-15T00:24:25;100193.44;;;3.41;80.61
53340;BME280;46212;50.258;19.062;2023-02-15T00:26:51;100178.34;;;3.50;80.29
53340;BME280;46212;50.258;19.062;2023-02-15T00:29:18;100180.28;;;3.50;80.14
53340;BME280;46212;50.258;19.062;2023-02-15T00:31:44;100166.59;;;3.46;80.11
53340;BME280;46212;50.258;19.062;2023-02-15T00:34:25;100175.38;;;3.33;80.88
53340;BME280;46212;50.258;19.062;2023-02-15T00:36:50;100144.81;;;3.23;81.09
53340;BME280;46212;50.258;19.062;2023-02-15T00:39:17;100165.34;;;3.40;80.99
53340;BME280;46212;50.258;19.062;2023-02-15T00:41:42;100169.59;;;3.38;80.44
53340;BME280;46212;50.258;19.062;2023-02-15T00:44:09;100159.81;;;3.37;80.83
53340;BME280;46212;50.258;19.062;2023-02-15T00:46:35;100143.22;;;3.49;79.99
53340;BME280;46212;50.258;19.062;2023-02-15T00:49:01;100154.38;;;3.66;79.32
53340;BME280;46212;50.258;19.062;2023-02-15T00:51:26;100135.84;;;3.53;79.20
53340;BME280;46212;50.258;19.062;2023-02-15T00:53:52;100148.44;;;3.61;79.37
53340;BME280;46212;50.258;19.062;2023-02-15T00:56:18;100133.22;;;3.30;79.94
53340;BME280;46212;50.258;19.062;2023-02-15T00:58:43;100147.53;;;3.23;80.34
53340;BME280;46212;50.258;19.062;2023-02-15T01:01:14;100157.44;;;3.05;81.49
53340;BME280;46212;50.258;19.062;2023-02-15T01:03:40;100147.53;;;3.20;81.49
53340;BME280;46212;50.258;19.062;2023-02-15T01:06:07;100154.31;;;3.33;81.03
53340;BME280;46212;50.258;19.062;2023-02-15T01:08:33;100145.34;;;3.33;80.84
53340;BME280;46212;50.258;19.062;2023-02-15T01:11:09;100154.69;;;3.32;80.73
53340;BME280;46212;50.258;19.062;2023-02-15T01:13:36;100148.28;;;3.20;80.94
53340;BME280;46212;50.258;19.062;2023-02-15T01:16:02;100150.72;;;3.26;81.25
53340;BME280;46212;50.258;19.062;2023-02-15T01:18:28;100141.63;;;3.18;81.56
53340;BME280;46212;50.258;19.062;2023-02-15T01:20:53;100132.75;;;2.98;82.36
53340;BME280;46212;50.258;19.062;2023-02-15T01:23:19;100141.63;;;3.18;82.30
53340;BME280;46212;50.258;19.062;2023-02-15T01:25:45;100141.84;;;3.32;82.06
53340;BME280;46212;50.258;19.062;2023-02-15T01:28:10;100125.41;;;3.29;81.28
53340;BME280;46212;50.258;19.062;2023-02-15T01:30:36;100125.56;;;3.39;80.94
53340;BME280;46212;50.258;19.062;2023-02-15T01:33:02;100138.53;;;3.49;80.86
53340;BME280;46212;50.258;19.062;2023-02-15T01:35:28;100131.56;;;3.55;80.61
53340;BME280;46212;50.258;19.062;2023-02-15T01:37:57;100127.75;;;3.60;80.31
53340;BME280;46212;50.258;19.062;2023-02-15T01:40:23;100128.63;;;3.38;80.83
53340;BME280;46212;50.258;19.062;2023-02-15T01:42:52;100114.06;;;3.27;81.89
53340;BME280;46212;50.258;19.062;2023-02-15T01:45:30;100120.44;;;3.38;81.36
53340;BME280;46212;50.258;19.062;2023-02-15T01:50:46;100103.34;;;3.14;82.19
53340;BME280;46212;50.258;19.062;2023-02-15T01:55:53;100098.44;;;3.27;81.64
53340;BME280;46212;50.258;19.062;2023-02-15T01:58:22;100103.16;;;3.27;81.73
53340;BME280;46212;50.258;19.062;2023-02-15T02:00:50;100094.72;;;3.39;81.08
53340;BME280;46212;50.258;19.062;2023-02-15T02:03:15;100097.44;;;3.39;81.27
53340;BME280;46212;50.258;19.062;2023-02-15T02:05:41;100097.31;;;3.28;82.06
53340;BME280;46212;50.258;19.062;2023-02-15T02:08:07;100090.22;;;3.23;82.12
53340;BME280;46212;50.258;19.062;2023-02-15T02:10:35;100085.28;;;3.33;81.86
53340;BME280;46212;50.258;19.062;2023-02-15T02:13:03;100079.22;;;3.16;82.08
53340;BME280;46212;50.258;19.062;2023-02-15T02:15:47;100069.78;;;3.10;82.27
53340;BME280;46212;50.258;19.062;2023-02-15T02:18:20;100074.03;;;3.08;83.13
53340;BME280;46212;50.258;19.062;2023-02-15T02:21:07;100074.81;;;3.08;82.40
53340;BME280;46212;50.258;19.062;2023-02-15T02:32:30;100071.63;;;3.33;82.13
53340;BME280;46212;50.258;19.062;2023-02-15T02:38:04;100062.75;;;3.43;81.86
53340;BME280;46212;50.258;19.062;2023-02-15T02:43:18;100031.28;;;3.19;83.13
53340;BME280;46212;50.258;19.062;2023-02-15T02:45:53;100046.56;;;3.27;82.96
53340;BME280;46212;50.258;19.062;2023-02-15T02:48:24;100029.44;;;3.30;82.45
53340;BME280;46212;50.258;19.062;2023-02-15T02:50:50;100045.03;;;3.26;82.96
53340;BME280;46212;50.258;19.062;2023-02-15T02:53:16;100033.72;;;3.28;83.27
53340;BME280;46212;50.258;19.062;2023-02-15T02:55:46;100034.66;;;3.09;83.38
53340;BME280;46212;50.258;19.062;2023-02-15T02:58:31;100030.91;;;3.20;83.97
53340;BME280;46212;50.258;19.062;2023-02-15T03:06:02;100043.97;;;3.04;83.66
53340;BME280;46212;50.258;19.062;2023-02-15T03:08:40;100043.09;;;2.97;84.52
53340;BME280;46212;50.258;19.062;2023-02-15T03:11:08;100030.00;;;3.09;84.08
53340;BME280;46212;50.258;19.062;2023-02-15T03:13:34;100032.38;;;3.14;83.98
53340;BME280;46212;50.258;19.062;2023-02-15T03:16:01;100037.00;;;3.07;84.07
53340;BME280;46212;50.258;19.062;2023-02-15T03:18:49;100024.44;;;3.02;84.04
53340;BME280;46212;50.258;19.062;2023-02-15T03:21:32;100017.00;;;2.99;84.14
53340;BME280;46212;50.258;19.062;2023-02-15T03:24:12;100026.13;;;3.14;84.14
53340;BME280;46212;50.258;19.062;2023-02-15T03:26:40;100027.81;;;3.22;83.66
53340;BME280;46212;50.258;19.062;2023-02-15T03:29:08;100026.66;;;3.23;83.63
53340;BME280;46212;50.258;19.062;2023-02-15T03:31:38;100007.38;;;3.09;83.50
53340;BME280;46212;50.258;19.062;2023-02-15T03:34:09;100028.06;;;3.10;83.85
53340;BME280;46212;50.258;19.062;2023-02-15T03:36:58;100018.72;;;2.81;84.63
53340;BME280;46212;50.258;19.062;2023-02-15T03:47:21;100024.72;;;2.94;84.30
53340;BME280;46212;50.258;19.062;2023-02-15T03:49:53;100033.53;;;3.10;84.59
53340;BME280;46212;50.258;19.062;2023-02-15T03:52:21;100043.25;;;2.81;84.85
53340;BME280;46212;50.258;19.062;2023-02-15T03:54:50;100044.22;;;2.96;84.91
53340;BME280;46212;50.258;19.062;2023-02-15T03:57:25;100033.97;;;2.86;85.17
53340;BME280;46212;50.258;19.062;2023-02-15T04:00:17;100023.66;;;3.02;84.33
53340;BME280;46212;50.258;19.062;2023-02-15T04:03:26;100035.13;;;3.14;83.55
53340;BME280;46212;50.258;19.062;2023-02-15T04:05:56;100046.22;;;2.99;84.42
53340;BME280;46212;50.258;19.062;2023-02-15T04:08:22;100040.28;;;2.63;85.01
53340;BME280;46212;50.258;19.062;2023-02-15T04:11:07;100039.50;;;2.63;86.27
53340;BME280;46212;50.258;19.062;2023-02-15T04:13:32;100034.63;;;2.49;86.80
53340;BME280;46212;50.258;19.062;2023-02-15T04:15:58;100019.28;;;2.67;85.61
53340;BME280;46212;50.258;19.062;2023-02-15T04:18:38;100044.41;;;2.54;86.54
53340;BME280;46212;50.258;19.062;2023-02-15T04:21:24;100040.38;;;2.71;86.44
53340;BME280;46212;50.258;19.062;2023-02-15T04:24:09;100038.66;;;2.85;85.84
53340;BME280;46212;50.258;19.062;2023-02-15T04:26:54;100040.03;;;3.02;84.50
53340;BME280;46212;50.258;19.062;2023-02-15T04:29:20;100033.72;;;2.68;85.39
53340;BME280;46212;50.258;19.062;2023-02-15T04:31:46;100020.78;;;2.61;85.77
53340;BME280;46212;50.258;19.062;2023-02-15T04:34:12;100018.16;;;2.68;85.89
53340;BME280;46212;50.258;19.062;2023-02-15T04:36:38;100042.41;;;2.77;85.93
53340;BME280;46212;50.258;19.062;2023-02-15T04:39:05;100040.16;;;2.83;85.53
53340;BME280;46212;50.258;19.062;2023-02-15T04:41:32;100037.47;;;2.86;85.48
53340;BME280;46212;50.258;19.062;2023-02-15T04:43:57;100029.56;;;2.78;85.79
53340;BME280;46212;50.258;19.062;2023-02-15T04:46:24;100028.28;;;2.98;85.70
53340;BME280;46212;50.258;19.062;2023-02-15T04:48:50;100036.09;;;2.99;84.59
53340;BME280;46212;50.258;19.062;2023-02-15T04:51:15;100045.72;;;2.63;85.74
53340;BME280;46212;50.258;19.062;2023-02-15T04:53:41;100030.63;;;2.43;86.77
53340;BME280;46212;50.258;19.062;2023-02-15T04:56:06;100031.31;;;2.37;87.24
53340;BME280;46212;50.258;19.062;2023-02-15T04:58:31;100034.28;;;2.54;87.02
53340;BME280;46212;50.258;19.062;2023-02-15T05:00:57;100035.81;;;3.08;85.57
53340;BME280;46212;50.258;19.062;2023-02-15T05:03:24;100037.47;;;2.86;85.53
53340;BME280;46212;50.258;19.062;2023-02-15T05:05:50;100036.09;;;2.99;85.42
53340;BME280;46212;50.258;19.062;2023-02-15T05:08:15;100034.06;;;2.66;85.91
53340;BME280;46212;50.258;19.062;2023-02-15T05:10:41;100028.03;;;2.80;86.28
53340;BME280;46212;50.258;19.062;2023-02-15T05:13:07;100029.06;;;2.68;86.68
53340;BME280;46212;50.258;19.062;2023-02-15T05:15:32;100028.91;;;2.58;86.72
53340;BME280;46212;50.258;19.062;2023-02-15T05:17:57;100023.09;;;2.59;86.88
53340;BME280;46212;50.258;19.062;2023-02-15T05:20:23;100036.00;;;2.92;85.45
53340;BME280;46212;50.258;19.062;2023-02-15T05:22:48;100036.28;;;2.57;86.42
53340;BME280;46212;50.258;19.062;2023-02-15T05:25:14;100031.50;;;2.77;86.46
53340;BME280;46212;50.258;19.062;2023-02-15T05:27:58;100025.16;;;2.69;86.31
53340;BME280;46212;50.258;19.062;2023-02-15T05:30:42;100030.22;;;2.67;86.53
53340;BME280;46212;50.258;19.062;2023-02-15T05:33:08;100032.16;;;2.67;86.41
53340;BME280;46212;50.258;19.062;2023-02-15T05:35:34;100033.78;;;2.45;87.53
53340;BME280;46212;50.258;19.062;2023-02-15T05:37:59;100023.50;;;2.35;87.83
53340;BME280;46212;50.258;19.062;2023-02-15T05:40:25;100014.53;;;2.61;86.96
53340;BME280;46212;50.258;19.062;2023-02-15T05:42:51;100033.72;;;2.68;86.52
53340;BME280;46212;50.258;19.062;2023-02-15T05:45:16;100018.16;;;2.68;86.98
53340;BME280;46212;50.258;19.062;2023-02-15T05:47:42;100042.25;;;2.93;86.10
53340;BME280;46212;50.258;19.062;2023-02-15T05:50:08;100026.00;;;2.74;86.11
53340;BME280;46212;50.258;19.062;2023-02-15T05:52:34;100034.81;;;2.90;86.02
53340;BME280;46212;50.258;19.062;2023-02-15T05:55:00;100034.69;;;2.83;86.22
53340;BME280;46212;50.258;19.062;2023-02-15T05:57:26;100030.94;;;2.64;86.19
53340;BME280;46212;50.258;19.062;2023-02-15T05:59:52;100044.78;;;2.52;87.17
53340;BME280;46212;50.258;19.062;2023-02-15T06:02:17;100022.88;;;2.45;87.67
53340;BME280;46212;50.258;19.062;2023-02-15T06:04:43;100023.50;;;2.61;86.94
53340;BME280;46212;50.258;19.062;2023-02-15T06:07:08;100028.38;;;2.49;87.64
53340;BME280;46212;50.258;19.062;2023-02-15T06:09:33;100021.19;;;2.63;87.19
53340;BME280;46212;50.258;19.062;2023-02-15T06:11:59;100018.38;;;2.56;87.05
53340;BME280;46212;50.258;19.062;2023-02-15T06:14:24;100025.72;;;2.52;87.74
53340;BME280;46212;50.258;19.062;2023-02-15T06:16:50;100035.78;;;2.75;86.89
53340;BME280;46212;50.258;19.062;2023-02-15T06:19:15;100041.13;;;2.67;86.34
53340;BME280;46212;50.258;19.062;2023-02-15T06:21:41;100042.59;;;2.61;87.14
53340;BME280;46212;50.258;19.062;2023-02-15T06:24:08;100038.03;;;2.69;87.27
53340;BME280;46212;50.258;19.062;2023-02-15T06:26:33;100033.25;;;2.62;86.68
53340;BME280;46212;50.258;19.062;2023-02-15T06:28:59;100043.78;;;3.20;84.76
53340;BME280;46212;50.258;19.062;2023-02-15T06:31:25;100028.94;;;2.88;85.23
53340;BME280;46212;50.258;19.062;2023-02-15T06:33:50;100047.53;;;2.79;85.68
53340;BME280;46212;50.258;19.062;2023-02-15T06:36:16;100052.09;;;2.71;86.01
53340;BME280;46212;50.258;19.062;2023-02-15T06:38:41;100053.59;;;2.68;86.78
53340;BME280;46212;50.258;19.062;2023-02-15T06:41:07;100049.03;;;2.76;86.62
53340;BME280;46212;50.258;19.062;2023-02-15T06:43:32;100056.22;;;2.88;86.28
53340;BME280;46212;50.258;19.062;2023-02-15T06:45:59;100052.59;;;2.80;86.49
53340;BME280;46212;50.258;19.062;2023-02-15T06:48:25;100050.13;;;2.98;85.28
53340;BME280;46212;50.258;19.062;2023-02-15T06:50:50;100050.88;;;2.95;85.90
53340;BME280;46212;50.258;19.062;2023-02-15T06:53:15;100048.53;;;2.97;85.49
53340;BME280;46212;50.258;19.062;2023-02-15T06:55:41;100051.72;;;3.02;84.89
53340;BME280;46212;50.258;19.062;2023-02-15T06:58:06;100036.06;;;2.96;84.87
53340;BME280;46212;50.258;19.062;2023-02-15T07:00:32;100041.78;;;2.61;86.36
53340;BME280;46212;50.258;19.062;2023-02-15T07:02:58;100047.72;;;2.66;86.92
53340;BME280;46212;50.258;19.062;2023-02-15T07:05:27;100044.53;;;2.61;87.04
53340;BME280;46212;50.258;19.062;2023-02-15T07:07:56;100031.84;;;2.46;87.49
53340;BME280;46212;50.258;19.062;2023-02-15T07:10:22;100034.81;;;2.63;87.14
53340;BME280;46212;50.258;19.062;2023-02-15T07:12:47;100037.03;;;2.54;87.54
53340;BME280;46212;50.258;19.062;2023-02-15T07:15:15;100040.25;;;2.60;87.09
53340;BME280;46212;50.258;19.062;2023-02-15T07:17:42;100038.59;;;2.82;87.00
53340;BME280;46212;50.258;19.062;2023-02-15T07:20:11;100028.38;;;2.75;86.32
53340;BME280;46212;50.258;19.062;2023-02-15T07:22:38;100050.16;;;3.01;85.61
53340;BME280;46212;50.258;19.062;2023-02-15T07:25:05;100029.44;;;2.97;85.55
53340;BME280;46212;50.258;19.062;2023-02-15T07:27:30;100031.13;;;3.38;84.37
53340;BME280;46212;50.258;19.062;2023-02-15T07:29:56;100034.75;;;3.16;84.92
53340;BME280;46212;50.258;19.062;2023-02-15T07:32:21;100032.38;;;3.14;84.31
53340;BME280;46212;50.258;19.062;2023-02-15T07:34:47;100024.28;;;2.92;85.02
53340;BME280;46212;50.258;19.062;2023-02-15T07:37:12;100020.53;;;2.74;86.36
53340;BME280;46212;50.258;19.062;2023-02-15T07:39:38;100035.06;;;3.07;85.82
53340;BME280;46212;50.258;19.062;2023-02-15T07:42:03;100042.41;;;3.37;84.55
53340;BME280;46212;50.258;19.062;2023-02-15T07:44:28;100031.03;;;3.31;84.21
53340;BME280;46212;50.258;19.062;2023-02-15T07:46:54;100022.59;;;3.43;84.04
53340;BME280;46212;50.258;19.062;2023-02-15T07:49:19;100010.41;;;3.70;82.76
53340;BME280;46212;50.258;19.062;2023-02-15T07:51:45;100026.38;;;3.68;82.17
53340;BME280;46212;50.258;19.062;2023-02-15T07:54:10;100006.72;;;3.56;82.74
53340;BME280;46212;50.258;19.062;2023-02-15T07:56:36;100022.38;;;3.59;82.80
53340;BME280;46212;50.258;19.062;2023-02-15T07:59:01;100020.63;;;3.81;82.68
53340;BME280;46212;50.258;19.062;2023-02-15T08:01:31;100009.88;;;3.58;82.87
53340;BME280;46212;50.258;19.062;2023-02-15T08:03:57;100021.16;;;3.97;81.94
53340;BME280;46212;50.258;19.062;2023-02-15T08:06:25;100001.94;;;3.83;81.56
53340;BME280;46212;50.258;19.062;2023-02-15T08:08:51;100016.19;;;4.06;81.36
53340;BME280;46212;50.258;19.062;2023-02-15T08:11:21;100009.47;;;4.00;80.68
53340;BME280;46212;50.258;19.062;2023-02-15T08:16:33;100006.44;;;4.08;81.30
53340;BME280;46212;50.258;19.062;2023-02-15T08:19:02;100012.47;;;4.28;80.57
53340;BME280;46212;50.258;19.062;2023-02-15T08:21:29;100009.09;;;4.49;79.89
53340;BME280;46212;50.258;19.062;2023-02-15T08:23:55;99996.28;;;4.63;78.95
53340;BME280;46212;50.258;19.062;2023-02-15T08:26:22;100007.06;;;4.39;79.02
53340;BME280;46212;50.258;19.062;2023-02-15T08:28:48;99999.75;;;4.57;78.62
53340;BME280;46212;50.258;19.062;2023-02-15T08:31:15;100011.97;;;4.73;78.01
53340;BME280;46212;50.258;19.062;2023-02-15T08:33:43;99983.44;;;4.74;77.44
53340;BME280;46212;50.258;19.062;2023-02-15T08:36:12;99985.41;;;4.77;77.39
53340;BME280;46212;50.258;19.062;2023-02-15T08:38:37;99983.81;;;4.73;77.50
53340;BME280;46212;50.258;19.062;2023-02-15T08:41:18;99993.31;;;4.93;77.09
53340;BME280;46212;50.258;19.062;2023-02-15T08:43:45;99997.22;;;4.96;77.12
53340;BME280;46212;50.258;19.062;2023-02-15T08:46:12;99988.22;;;4.92;77.12
53340;BME280;46212;50.258;19.062;2023-02-15T08:48:38;99992.59;;;5.07;77.19
53340;BME280;46212;50.258;19.062;2023-02-15T08:51:05;99983.13;;;4.87;77.28
53340;BME280;46212;50.258;19.062;2023-02-15T08:53:31;99990.53;;;4.86;77.71
53340;BME280;46212;50.258;19.062;2023-02-15T08:55:58;99967.84;;;4.86;77.01
53340;BME280;46212;50.258;19.062;2023-02-15T08:58:24;99987.38;;;4.80;77.83
53340;BME280;46212;50.258;19.062;2023-02-15T09:00:50;99980.75;;;4.89;77.45
53340;BME280;46212;50.258;19.062;2023-02-15T09:03:15;99968.47;;;4.54;78.52
53340;BME280;46212;50.258;19.062;2023-02-15T09:05:41;99976.81;;;4.79;78.06
53340;BME280;46212;50.258;19.062;2023-02-15T09:08:06;99975.63;;;4.76;78.50
53340;BME280;46212;50.258;19.062;2023-02-15T09:10:32;99956.94;;;4.93;76.88
53340;BME280;46212;50.258;19.062;2023-02-15T09:12:57;99968.78;;;5.25;75.86
53340;BME280;46212;50.258;19.062;2023-02-15T09:15:23;99977.00;;;5.21;76.18
53340;BME280;46212;50.258;19.062;2023-02-15T09:17:48;99973.03;;;5.12;77.00
53340;BME280;46212;50.258;19.062;2023-02-15T09:20:13;99967.16;;;5.06;77.31
53340;BME280;46212;50.258;19.062;2023-02-15T09:22:39;99969.09;;;5.02;76.96
53340;BME280;46212;50.258;19.062;2023-02-15T09:25:05;99975.38;;;5.06;77.25
53340;BME280;46212;50.258;19.062;2023-02-15T09:27:30;99967.22;;;5.27;76.93
53340;BME280;46212;50.258;19.062;2023-02-15T09:29:55;99959.41;;;5.22;76.68
53340;BME280;46212;50.258;19.062;2023-02-15T09:32:21;99951.22;;;5.36;76.35
53340;BME280;46212;50.258;19.062;2023-02-15T09:34:47;99934.41;;;5.38;76.23
53340;BME280;46212;50.258;19.062;2023-02-15T09:37:13;99948.50;;;5.47;76.01
53340;BME280;46212;50.258;19.062;2023-02-15T09:39:41;99938.72;;;5.60;75.69
53340;BME280;46212;50.258;19.062;2023-02-15T09:42:15;99928.56;;;5.61;75.48
53340;BME280;46212;50.258;19.062;2023-02-15T09:51:12;99926.19;;;5.38;75.81
53340;BME280;46212;50.258;19.062;2023-02-15T09:56:36;99921.91;;;5.79;75.33
53340;BME280;46212;50.258;19.062;2023-02-15T09:59:24;99923.09;;;6.00;74.16
53340;BME280;46212;50.258;19.062;2023-02-15T10:02:01;99912.53;;;5.87;73.65
53340;BME280;46212;50.258;19.062;2023-02-15T10:04:51;99919.19;;;6.04;72.60
53340;BME280;46212;50.258;19.062;2023-02-15T10:07:42;99917.63;;;5.89;71.73
53340;BME280;46212;50.258;19.062;2023-02-15T10:26:50;99908.78;;;6.86;70.42
53340;BME280;46212;50.258;19.062;2023-02-15T10:29:22;99900.94;;;6.84;69.89
53340;BME280;46212;50.258;19.062;2023-02-15T10:34:43;99887.44;;;7.15;68.36
53340;BME280;46212;50.258;19.062;2023-02-15T10:52:53;99879.88;;;7.29;66.49
53340;BME280;46212;50.258;19.062;2023-02-15T10:58:13;99850.75;;;7.87;66.87
53340;BME280;46212;50.258;19.062;2023-02-15T11:00:45;99868.69;;;8.02;66.82
53340;BME280;46212;50.258;19.062;2023-02-15T11:06:04;99857.22;;;8.48;62.96
53340;BME280;46212;50.258;19.062;2023-02-15T11:08:35;99850.56;;;8.45;62.35
53340;BME280;46212;50.258;19.062;2023-02-15T11:11:05;99828.03;;;8.54;61.48
53340;BME280;46212;50.258;19.062;2023-02-15T11:13:36;99846.28;;;8.75;60.91
53340;BME280;46212;50.258;19.062;2023-02-15T11:16:08;99839.91;;;8.81;61.37
53340;BME280;46212;50.258;19.062;2023-02-15T11:18:40;99838.13;;;9.21;60.22
53340;BME280;46212;50.258;19.062;2023-02-15T11:21:13;99835.28;;;9.51;60.19
53340;BME280;46212;50.258;19.062;2023-02-15T11:23:46;99837.94;;;9.35;58.95
53340;BME280;46212;50.258;19.062;2023-02-15T11:29:10;99826.41;;;9.87;57.97
53340;BME280;46212;50.258;19.062;2023-02-15T11:31:42;99813.00;;;9.89;57.68
53340;BME280;46212;50.258;19.062;2023-02-15T11:34:25;99829.00;;;10.21;57.03
53340;BME280;46212;50.258;19.062;2023-02-15T11:36:55;99826.47;;;10.06;56.43
53340;BME280;46212;50.258;19.062;2023-02-15T11:39:26;99808.59;;;10.15;56.55
53340;BME280;46212;50.258;19.062;2023-02-15T11:41:56;99819.16;;;10.59;55.68
53340;BME280;46212;50.258;19.062;2023-02-15T11:44:34;99807.75;;;10.57;55.77
53340;BME280;46212;50.258;19.062;2023-02-15T11:47:01;99803.00;;;10.93;54.41
53340;BME280;46212;50.258;19.062;2023-02-15T11:49:32;99808.19;;;11.07;53.67
53340;BME280;46212;50.258;19.062;2023-02-15T11:52:05;99817.34;;;11.04;53.56
53340;BME280;46212;50.258;19.062;2023-02-15T11:54:34;99801.50;;;11.41;56.99
53340;BME280;46212;50.258;19.062;2023-02-15T11:57:31;99807.19;;;11.66;55.76
53340;BME280;46212;50.258;19.062;2023-02-15T12:00:10;99804.78;;;12.13;50.87
53340;BME280;46212;50.258;19.062;2023-02-15T12:02:44;99779.81;;;12.00;49.95
53340;BME280;46212;50.258;19.062;2023-02-15T12:05:16;99788.53;;;12.27;49.47
53340;BME280;46212;50.258;19.062;2023-02-15T12:07:49;99784.31;;;12.52;48.77
53340;BME280;46212;50.258;19.062;2023-02-15T12:10:22;99783.41;;;12.42;47.93
53340;BME280;46212;50.258;19.062;2023-02-15T12:13:09;99786.88;;;12.59;48.10
53340;BME280;46212;50.258;19.062;2023-02-15T12:15:35;99773.66;;;12.63;48.31
53340;BME280;46212;50.258;19.062;2023-02-15T12:18:02;99783.00;;;12.94;46.90
53340;BME280;46212;50.258;19.062;2023-02-15T12:20:32;99786.25;;;12.93;45.40
53340;BME280;46212;50.258;19.062;2023-02-15T12:23:14;99783.88;;;12.78;45.40
53340;BME280;46212;50.258;19.062;2023-02-15T12:25:53;99768.50;;;12.77;44.98
53340;BME280;46212;50.258;19.062;2023-02-15T12:29:06;99767.38;;;12.75;45.24
53340;BME280;46212;50.258;19.062;2023-02-15T12:31:37;99777.16;;;12.92;45.21
53340;BME280;46212;50.258;19.062;2023-02-15T12:34:12;99777.88;;;12.55;45.42
53340;BME280;46212;50.258;19.062;2023-02-15T12:36:42;99767.38;;;13.00;44.63
53340;BME280;46212;50.258;19.062;2023-02-15T12:41:37;99760.13;;;13.53;43.78
53340;BME280;46212;50.258;19.062;2023-02-15T12:44:16;99746.50;;;13.46;43.26
53340;BME280;46212;50.258;19.062;2023-02-15T12:46:56;99756.06;;;12.95;44.45
53340;BME280;46212;50.258;19.062;2023-02-15T12:49:23;99745.63;;;13.37;43.94
53340;BME280;46212;50.258;19.062;2023-02-15T12:52:22;99732.91;;;13.14;44.48
53340;BME280;46212;50.258;19.062;2023-02-15T12:54:49;99732.28;;;13.57;44.11
53340;BME280;46212;50.258;19.062;2023-02-15T12:57:30;99733.28;;;14.06;42.52
53340;BME280;46212;50.258;19.062;2023-02-15T13:00:05;99723.03;;;14.38;41.54
53340;BME280;46212;50.258;19.062;2023-02-15T13:02:44;99726.28;;;14.36;42.14
53340;BME280;46212;50.258;19.062;2023-02-15T13:08:03;99722.75;;;14.75;41.66
53340;BME280;46212;50.258;19.062;2023-02-15T13:10:37;99720.34;;;14.56;41.18
53340;BME280;46212;50.258;19.062;2023-02-15T13:13:11;99725.38;;;14.79;40.85
53340;BME280;46212;50.258;19.062;2023-02-15T13:15:46;99708.84;;;14.45;40.49
53340;BME280;46212;50.258;19.062;2023-02-15T13:18:18;99706.63;;;14.61;40.15
53340;BME280;46212;50.258;19.062;2023-02-15T13:20:47;99698.81;;;14.47;40.80
53340;BME280;46212;50.258;19.062;2023-02-15T13:23:20;99709.44;;;14.70;40.40
53340;BME280;46212;50.258;19.062;2023-02-15T13:25:48;99704.88;;;14.85;40.40
53340;BME280;46212;50.258;19.062;2023-02-15T13:28:18;99702.81;;;15.35;39.18
53340;BME280;46212;50.258;19.062;2023-02-15T13:30:47;99696.25;;;15.69;38.90
53340;BME280;46212;50.258;19.062;2023-02-15T13:33:20;99695.63;;;15.74;37.53
53340;BME280;46212;50.258;19.062;2023-02-15T13:41:12;99685.78;;;16.42;36.97
53340;BME280;46212;50.258;19.062;2023-02-15T13:52:20;99678.28;;;22.20;27.59
53340;BME280;46212;50.258;19.062;2023-02-15T14:00:03;99682.09;;;23.17;24.92
53340;BME280;46212;50.258;19.062;2023-02-15T14:08:07;99673.78;;;27.58;20.85
53340;BME280;46212;50.258;19.062;2023-02-15T14:19:45;99673.28;;;25.25;21.00
53340;BME280;46212;50.258;19.062;2023-02-15T14:28:07;99671.09;;;23.83;23.56
53340;BME280;46212;50.258;19.062;2023-02-15T14:30:39;99664.78;;;25.50;22.33
53340;BME280;46212;50.258;19.062;2023-02-15T14:35:41;99661.59;;;24.26;23.17
53340;BME280;46212;50.258;19.062;2023-02-15T14:38:23;99658.91;;;26.04;21.67
53340;BME280;46212;50.258;19.062;2023-02-15T14:40:58;99651.06;;;25.35;22.28
53340;BME280;46212;50.258;19.062;2023-02-15T14:46:34;99668.25;;;25.99;21.41
53340;BME280;46212;50.258;19.062;2023-02-15T14:49:16;99653.50;;;25.44;22.17
53340;BME280;46212;50.258;19.062;2023-02-15T15:04:38;99658.47;;;21.11;27.75
53340;BME280;46212;50.258;19.062;2023-02-15T15:07:35;99660.03;;;20.81;28.61
53340;BME280;46212;50.258;19.062;2023-02-15T15:12:55;99657.16;;;21.66;27.22
53340;BME280;46212;50.258;19.062;2023-02-15T15:31:20;99649.22;;;14.76;38.59
53340;BME280;46212;50.258;19.062;2023-02-15T15:50:45;99645.56;;;10.90;49.37
53340;BME280;46212;50.258;19.062;2023-02-15T15:53:24;99638.44;;;10.04;51.44
53340;BME280;46212;50.258;19.062;2023-02-15T15:55:54;99636.25;;;9.96;51.54
53340;BME280;46212;50.258;19.062;2023-02-15T15:58:23;99615.78;;;9.57;51.85
53340;BME280;46212;50.258;19.062;2023-02-15T16:00:59;99633.00;;;9.22;52.88
53340;BME280;46212;50.258;19.062;2023-02-15T16:03:27;99633.50;;;8.94;53.77
53340;BME280;46212;50.258;19.062;2023-02-15T16:05:54;99613.91;;;8.65;53.90
53340;BME280;46212;50.258;19.062;2023-02-15T16:08:34;99636.16;;;8.51;55.02
53340;BME280;46212;50.258;19.062;2023-02-15T16:11:10;99628.63;;;8.25;55.76
53340;BME280;46212;50.258;19.062;2023-02-15T16:13:36;99618.94;;;8.17;56.27